sensor_id;sensor_type;location;lat;lon;timestamp;temperature;humidity
36670;DHT22;22662;47.412;9.742;2022-12-07T00:01:07;2.00;99.90
36670;DHT22;22662;47.412;9.742;2022-12-07T00:03:33;2.00;99.90
36670;DHT22;22662;47.412;9.742;2022-12-07T00:05:59;2.00;99.90
36670;DHT22;22662;47.412;9.742;2022-12-07T00:08:25;2.10;99.90
36670;DHT22;22662;47.412;9.742;2022-12-07T00:10:51;2.00;99.90
36670;DHT22;22662;47.412;9.742;2022-12-07T00:13:16;2.10;99.90
36670;DHT22;22662;47.412;9.742;2022-12-07T00:15:42;2.00;99.90
36670;DHT22;22662;47.412;9.742;2022-12-07T00:18:07;2.00;99.90
36670;DHT22;22662;47.412;9.742;2022-12-07T00:20:33;2.00;99.90
36670;DHT22;22662;47.412;9.742;2022-12-07T00:22:58;2.00;99.90
36670;DHT22;22662;47.412;9.742;2022-12-07T00:25:24;1.90;99.90
36670;DHT22;22662;47.412;9.742;2022-12-07T00:27:50;1.90;99.90
36670;DHT22;22662;47.412;9.742;2022-12-07T00:30:15;1.90;99.90
36670;DHT22;22662;47.412;9.742;2022-12-07T00:32:41;1.90;99.90
36670;DHT22;22662;47.412;9.742;2022-12-07T00:35:06;2.00;99.90
36670;DHT22;22662;47.412;9.742;2022-12-07T00:37:32;2.10;99.90
36670;DHT22;22662;47.412;9.742;2022-12-07T00:39:57;2.10;99.90
36670;DHT22;22662;47.412;9.742;2022-12-07T00:42:23;2.10;99.90
36670;DHT22;22662;47.412;9.742;2022-12-07T00:44:48;2.10;99.90
36670;DHT22;22662;47.412;9.742;2022-12-07T00:47:14;2.10;99.90
36670;DHT22;22662;47.412;9.742;2022-12-07T00:49:39;2.10;99.90
36670;DHT22;22662;47.412;9.742;2022-12-07T00:52:05;2.00;99.90
36670;DHT22;22662;47.412;9.742;2022-12-07T00:54:30;2.00;99.90
36670;DHT22;22662;47.412;9.742;2022-12-07T00:56:56;2.10;99.90
36670;DHT22;22662;47.412;9.742;2022-12-07T00:59:21;2.00;99.90
36670;DHT22;22662;47.412;9.742;2022-12-07T01:01:47;2.00;99.90
36670;DHT22;22662;47.412;9.742;2022-12-07T01:04:12;1.90;99.90
36670;DHT22;22662;47.412;9.742;2022-12-07T01:06:38;1.90;99.90
36670;DHT22;22662;47.412;9.742;2022-12-07T01:09:03;1.90;99.90
36670;DHT22;22662;47.412;9.742;2022-12-07T01:11:30;1.80;99.90
36670;DHT22;22662;47.412;9.742;2022-12-07T01:13:56;1.80;99.90
36670;DHT22;22662;47.412;9.742;2022-12-07T01:16:23;1.70;99.90
36670;DHT22;22662;47.412;9.742;2022-12-07T01:18:50;1.80;99.90
36670;DHT22;22662;47.412;9.742;2022-12-07T01:21:16;1.80;99.90
36670;DHT22;22662;47.412;9.742;2022-12-07T01:23:42;1.90;99.90
36670;DHT22;22662;47.412;9.742;2022-12-07T01:26:11;1.90;99.90
36670;DHT22;22662;47.412;9.742;2022-12-07T01:28:39;1.90;99.90
36670;DHT22;22662;47.412;9.742;2022-12-07T01:31:08;1.90;99.90
36670;DHT22;22662;47.412;9.742;2022-12-07T01:33:37;1.90;99.90
36670;DHT22;22662;47.412;9.742;2022-12-07T01:36:04;2.00;99.90
36670;DHT22;22662;47.412;9.742;2022-12-07T01:38:30;2.00;99.90
36670;DHT22;22662;47.412;9.742;2022-12-07T01:40:56;1.90;99.90
36670;DHT22;22662;47.412;9.742;2022-12-07T01:43:22;1.90;99.90
36670;DHT22;22662;47.412;9.742;2022-12-07T01:45:48;1.90;99.90
36670;DHT22;22662;47.412;9.742;2022-12-07T01:48:15;1.90;99.90
36670;DHT22;22662;47.412;9.742;2022-12-07T01:50:42;1.90;99.90
36670;DHT22;22662;47.412;9.742;2022-12-07T01:53:09;1.80;99.90
36670;DHT22;22662;47.412;9.742;2022-12-07T01:55:36;1.80;99.90
36670;DHT22;22662;47.412;9.742;2022-12-07T01:58:03;1.80;99.90
36670;DHT22;22662;47.412;9.742;2022-12-07T02:00:28;1.80;99.90
36670;DHT22;22662;47.412;9.742;2022-12-07T02:05:35;1.60;99.90
36670;DHT22;22662;47.412;9.742;2022-12-07T02:08:02;1.60;99.90
36670;DHT22;22662;47.412;9.742;2022-12-07T02:10:29;1.70;99.90
36670;DHT22;22662;47.412;9.742;2022-12-07T02:12:59;1.70;99.90
36670;DHT22;22662;47.412;9.742;2022-12-07T02:15:27;1.60;99.90
36670;DHT22;22662;47.412;9.742;2022-12-07T02:18:07;1.80;99.90
36670;DHT22;22662;47.412;9.742;2022-12-07T02:20:39;1.80;99.90
36670;DHT22;22662;47.412;9.742;2022-12-07T02:26:09;1.80;99.90
36670;DHT22;22662;47.412;9.742;2022-12-07T02:31:12;1.90;99.90
36670;DHT22;22662;47.412;9.742;2022-12-07T02:34:03;1.90;99.90
36670;DHT22;22662;47.412;9.742;2022-12-07T02:36:27;2.00;99.90
36670;DHT22;22662;47.412;9.742;2022-12-07T02:39:01;2.10;99.90
36670;DHT22;22662;47.412;9.742;2022-12-07T02:41:29;2.10;99.90
36670;DHT22;22662;47.412;9.742;2022-12-07T02:44:00;2.00;99.90
36670;DHT22;22662;47.412;9.742;2022-12-07T02:46:32;2.00;99.90
36670;DHT22;22662;47.412;9.742;2022-12-07T02:48:59;1.90;99.90
36670;DHT22;22662;47.412;9.742;2022-12-07T02:51:25;1.90;99.90
36670;DHT22;22662;47.412;9.742;2022-12-07T02:53:50;1.90;99.90
36670;DHT22;22662;47.412;9.742;2022-12-07T03:03:48;1.90;99.90
36670;DHT22;22662;47.412;9.742;2022-12-07T03:06:23;2.00;99.90
36670;DHT22;22662;47.412;9.742;2022-12-07T03:08:57;1.90;99.90
36670;DHT22;22662;47.412;9.742;2022-12-07T03:14:00;1.90;99.90
36670;DHT22;22662;47.412;9.742;2022-12-07T03:16:40;1.90;99.90
36670;DHT22;22662;47.412;9.742;2022-12-07T03:19:14;1.90;99.90
36670;DHT22;22662;47.412;9.742;2022-12-07T03:21:51;1.90;99.90
36670;DHT22;22662;47.412;9.742;2022-12-07T03:24:20;1.80;99.90
36670;DHT22;22662;47.412;9.742;2022-12-07T03:26:47;1.80;99.90
36670;DHT22;22662;47.412;9.742;2022-12-07T03:29:17;1.80;99.90
36670;DHT22;22662;47.412;9.742;2022-12-07T03:31:45;1.90;99.90
36670;DHT22;22662;47.412;9.742;2022-12-07T03:34:18;1.90;99.90
36670;DHT22;22662;47.412;9.742;2022-12-07T03:36:50;1.90;99.90
36670;DHT22;22662;47.412;9.742;2022-12-07T03:39:25;1.90;99.90
36670;DHT22;22662;47.412;9.742;2022-12-07T03:41:54;2.00;99.90
36670;DHT22;22662;47.412;9.742;2022-12-07T03:44:20;2.00;99.90
36670;DHT22;22662;47.412;9.742;2022-12-07T03:49:29;2.00;99.90
36670;DHT22;22662;47.412;9.742;2022-12-07T03:54:32;1.80;99.90
36670;DHT22;22662;47.412;9.742;2022-12-07T03:56:59;1.70;99.90
36670;DHT22;22662;47.412;9.742;2022-12-07T03:59:26;1.80;99.90
36670;DHT22;22662;47.412;9.742;2022-12-07T04:01:53;1.80;99.90
36670;DHT22;22662;47.412;9.742;2022-12-07T04:04:19;1.80;99.90
36670;DHT22;22662;47.412;9.742;2022-12-07T04:06:44;1.80;99.90
36670;DHT22;22662;47.412;9.742;2022-12-07T04:09:10;1.70;99.90
36670;DHT22;22662;47.412;9.742;2022-12-07T04:11:35;1.60;99.90
36670;DHT22;22662;47.412;9.742;2022-12-07T04:14:01;1.60;99.90
36670;DHT22;22662;47.412;9.742;2022-12-07T04:19:10;1.70;99.90
36670;DHT22;22662;47.412;9.742;2022-12-07T04:21:36;1.60;99.90
36670;DHT22;22662;47.412;9.742;2022-12-07T04:24:01;1.60;99.90
36670;DHT22;22662;47.412;9.742;2022-12-07T04:26:27;1.50;99.90
36670;DHT22;22662;47.412;9.742;2022-12-07T04:28:53;1.60;99.90
36670;DHT22;22662;47.412;9.742;2022-12-07T04:31:18;1.60;99.90
36670;DHT22;22662;47.412;9.742;2022-12-07T04:33:44;1.70;99.90
36670;DHT22;22662;47.412;9.742;2022-12-07T04:36:09;1.70;99.90
36670;DHT22;22662;47.412;9.742;2022-12-07T04:38:35;1.80;99.90
36670;DHT22;22662;47.412;9.742;2022-12-07T04:41:04;1.80;99.90
36670;DHT22;22662;47.412;9.742;2022-12-07T04:43:30;1.80;99.90
36670;DHT22;22662;47.412;9.742;2022-12-07T04:45:55;1.90;99.90
36670;DHT22;22662;47.412;9.742;2022-12-07T04:48:21;1.90;99.90
36670;DHT22;22662;47.412;9.742;2022-12-07T04:50:47;2.00;99.90
36670;DHT22;22662;47.412;9.742;2022-12-07T04:53:13;1.90;99.90
36670;DHT22;22662;47.412;9.742;2022-12-07T04:55:38;2.00;99.90
36670;DHT22;22662;47.412;9.742;2022-12-07T04:58:04;1.90;99.90
36670;DHT22;22662;47.412;9.742;2022-12-07T05:00:29;1.90;99.90
36670;DHT22;22662;47.412;9.742;2022-12-07T05:02:55;1.90;99.90
36670;DHT22;22662;47.412;9.742;2022-12-07T05:05:20;1.90;99.90
36670;DHT22;22662;47.412;9.742;2022-12-07T05:07:46;1.90;99.90
36670;DHT22;22662;47.412;9.742;2022-12-07T05:10:11;1.80;99.90
36670;DHT22;22662;47.412;9.742;2022-12-07T05:12:37;1.90;99.90
36670;DHT22;22662;47.412;9.742;2022-12-07T05:15:02;1.80;99.90
36670;DHT22;22662;47.412;9.742;2022-12-07T05:17:28;1.80;99.90
36670;DHT22;22662;47.412;9.742;2022-12-07T05:19:54;1.80;99.90
36670;DHT22;22662;47.412;9.742;2022-12-07T05:22:19;1.70;99.90
36670;DHT22;22662;47.412;9.742;2022-12-07T05:24:45;1.70;99.90
36670;DHT22;22662;47.412;9.742;2022-12-07T05:27:10;1.70;99.90
36670;DHT22;22662;47.412;9.742;2022-12-07T05:29:36;1.70;99.90
36670;DHT22;22662;47.412;9.742;2022-12-07T05:32:01;1.80;99.90
36670;DHT22;22662;47.412;9.742;2022-12-07T05:34:27;1.80;99.90
36670;DHT22;22662;47.412;9.742;2022-12-07T05:36:52;1.90;99.90
36670;DHT22;22662;47.412;9.742;2022-12-07T05:39:18;1.90;99.90
36670;DHT22;22662;47.412;9.742;2022-12-07T05:41:43;1.80;99.90
36670;DHT22;22662;47.412;9.742;2022-12-07T05:44:28;1.90;99.90
36670;DHT22;22662;47.412;9.742;2022-12-07T05:46:53;1.90;99.90
36670;DHT22;22662;47.412;9.742;2022-12-07T05:49:19;1.80;99.90
36670;DHT22;22662;47.412;9.742;2022-12-07T05:51:45;1.80;99.90
36670;DHT22;22662;47.412;9.742;2022-12-07T05:54:10;1.80;99.90
36670;DHT22;22662;47.412;9.742;2022-12-07T05:56:36;1.90;99.90
36670;DHT22;22662;47.412;9.742;2022-12-07T05:59:01;1.80;99.90
36670;DHT22;22662;47.412;9.742;2022-12-07T06:01:45;1.90;99.90
36670;DHT22;22662;47.412;9.742;2022-12-07T06:04:11;1.80;99.90
36670;DHT22;22662;47.412;9.742;2022-12-07T06:06:37;1.80;99.90
36670;DHT22;22662;47.412;9.742;2022-12-07T06:09:03;1.80;99.90
36670;DHT22;22662;47.412;9.742;2022-12-07T06:11:28;1.80;99.90
36670;DHT22;22662;47.412;9.742;2022-12-07T06:14:12;1.80;99.90
36670;DHT22;22662;47.412;9.742;2022-12-07T06:16:38;1.90;99.90
36670;DHT22;22662;47.412;9.742;2022-12-07T06:19:04;1.90;99.90
36670;DHT22;22662;47.412;9.742;2022-12-07T06:21:29;1.80;99.90
36670;DHT22;22662;47.412;9.742;2022-12-07T06:23:55;1.80;99.90
36670;DHT22;22662;47.412;9.742;2022-12-07T06:26:20;1.80;99.90
36670;DHT22;22662;47.412;9.742;2022-12-07T06:28:46;1.90;99.90
36670;DHT22;22662;47.412;9.742;2022-12-07T06:31:12;1.90;99.90
36670;DHT22;22662;47.412;9.742;2022-12-07T06:33:37;1.90;99.90
36670;DHT22;22662;47.412;9.742;2022-12-07T06:36:03;2.00;99.90
36670;DHT22;22662;47.412;9.742;2022-12-07T06:38:28;1.90;99.90
36670;DHT22;22662;47.412;9.742;2022-12-07T06:40:54;2.00;99.90
36670;DHT22;22662;47.412;9.742;2022-12-07T06:43:20;2.00;99.90
36670;DHT22;22662;47.412;9.742;2022-12-07T06:45:45;1.90;99.90
36670;DHT22;22662;47.412;9.742;2022-12-07T06:48:11;2.00;99.90
36670;DHT22;22662;47.412;9.742;2022-12-07T06:50:36;2.00;99.90
36670;DHT22;22662;47.412;9.742;2022-12-07T06:53:02;2.10;99.90
36670;DHT22;22662;47.412;9.742;2022-12-07T06:55:28;2.20;99.90
36670;DHT22;22662;47.412;9.742;2022-12-07T06:57:53;2.20;99.90
36670;DHT22;22662;47.412;9.742;2022-12-07T07:00:19;2.30;99.90
36670;DHT22;22662;47.412;9.742;2022-12-07T07:02:44;2.30;99.90
36670;DHT22;22662;47.412;9.742;2022-12-07T07:05:10;2.30;99.90
36670;DHT22;22662;47.412;9.742;2022-12-07T07:07:44;2.30;99.90
36670;DHT22;22662;47.412;9.742;2022-12-07T07:10:10;2.30;99.90
36670;DHT22;22662;47.412;9.742;2022-12-07T07:12:36;2.40;99.90
36670;DHT22;22662;47.412;9.742;2022-12-07T07:15:01;2.40;99.90
36670;DHT22;22662;47.412;9.742;2022-12-07T07:17:27;2.40;99.90
36670;DHT22;22662;47.412;9.742;2022-12-07T07:19:52;2.40;99.90
36670;DHT22;22662;47.412;9.742;2022-12-07T07:22:18;2.30;99.90
36670;DHT22;22662;47.412;9.742;2022-12-07T07:24:43;2.30;99.90
36670;DHT22;22662;47.412;9.742;2022-12-07T07:27:09;2.20;99.90
36670;DHT22;22662;47.412;9.742;2022-12-07T07:29:35;2.20;99.90
36670;DHT22;22662;47.412;9.742;2022-12-07T07:32:00;2.30;99.90
36670;DHT22;22662;47.412;9.742;2022-12-07T07:34:26;2.20;99.90
36670;DHT22;22662;47.412;9.742;2022-12-07T07:36:52;2.20;99.90
36670;DHT22;22662;47.412;9.742;2022-12-07T07:39:17;2.30;99.90
36670;DHT22;22662;47.412;9.742;2022-12-07T07:41:43;2.30;99.90
36670;DHT22;22662;47.412;9.742;2022-12-07T07:44:09;2.10;99.90
36670;DHT22;22662;47.412;9.742;2022-12-07T07:46:34;2.10;99.90
36670;DHT22;22662;47.412;9.742;2022-12-07T07:49:00;2.10;99.90
36670;DHT22;22662;47.412;9.742;2022-12-07T07:51:25;2.10;99.90
36670;DHT22;22662;47.412;9.742;2022-12-07T07:53:51;2.20;99.90
36670;DHT22;22662;47.412;9.742;2022-12-07T07:56:16;2.10;99.90
36670;DHT22;22662;47.412;9.742;2022-12-07T07:58:42;2.10;99.90
36670;DHT22;22662;47.412;9.742;2022-12-07T08:01:08;2.00;99.90
36670;DHT22;22662;47.412;9.742;2022-12-07T08:03:33;1.90;99.90
36670;DHT22;22662;47.412;9.742;2022-12-07T08:05:59;1.80;99.90
36670;DHT22;22662;47.412;9.742;2022-12-07T08:08:24;1.80;99.90
36670;DHT22;22662;47.412;9.742;2022-12-07T08:10:50;1.80;99.90
36670;DHT22;22662;47.412;9.742;2022-12-07T08:13:16;1.90;99.90
36670;DHT22;22662;47.412;9.742;2022-12-07T08:15:42;1.90;99.90
36670;DHT22;22662;47.412;9.742;2022-12-07T08:18:08;2.00;99.90
36670;DHT22;22662;47.412;9.742;2022-12-07T08:20:34;2.10;99.90
36670;DHT22;22662;47.412;9.742;2022-12-07T08:23:00;2.10;99.90
36670;DHT22;22662;47.412;9.742;2022-12-07T08:25:25;2.20;99.90
36670;DHT22;22662;47.412;9.742;2022-12-07T08:27:51;2.30;99.90
36670;DHT22;22662;47.412;9.742;2022-12-07T08:30:17;2.30;99.90
36670;DHT22;22662;47.412;9.742;2022-12-07T08:32:46;2.40;99.90
36670;DHT22;22662;47.412;9.742;2022-12-07T08:35:12;2.50;99.90
36670;DHT22;22662;47.412;9.742;2022-12-07T08:37:38;2.50;99.90
36670;DHT22;22662;47.412;9.742;2022-12-07T08:40:04;2.50;99.90
36670;DHT22;22662;47.412;9.742;2022-12-07T08:42:30;2.60;99.90
36670;DHT22;22662;47.412;9.742;2022-12-07T08:45:09;2.50;99.90
36670;DHT22;22662;47.412;9.742;2022-12-07T08:47:36;2.60;99.90
36670;DHT22;22662;47.412;9.742;2022-12-07T08:50:03;2.60;99.90
36670;DHT22;22662;47.412;9.742;2022-12-07T08:52:29;2.60;99.90
36670;DHT22;22662;47.412;9.742;2022-12-07T08:54:56;2.60;99.90
36670;DHT22;22662;47.412;9.742;2022-12-07T08:57:21;2.50;99.90
36670;DHT22;22662;47.412;9.742;2022-12-07T08:59:47;2.50;99.90
36670;DHT22;22662;47.412;9.742;2022-12-07T09:02:13;2.50;99.90
36670;DHT22;22662;47.412;9.742;2022-12-07T09:04:38;2.50;99.90
36670;DHT22;22662;47.412;9.742;2022-12-07T09:07:04;2.50;99.90
36670;DHT22;22662;47.412;9.742;2022-12-07T09:09:29;2.50;99.90
36670;DHT22;22662;47.412;9.742;2022-12-07T09:11:55;2.60;99.90
36670;DHT22;22662;47.412;9.742;2022-12-07T09:14:21;2.60;99.90
36670;DHT22;22662;47.412;9.742;2022-12-07T09:16:46;2.70;99.90
36670;DHT22;22662;47.412;9.742;2022-12-07T09:19:12;2.70;99.90
36670;DHT22;22662;47.412;9.742;2022-12-07T09:21:37;2.60;99.90
36670;DHT22;22662;47.412;9.742;2022-12-07T09:24:03;2.60;99.90
36670;DHT22;22662;47.412;9.742;2022-12-07T09:26:29;2.60;99.90
36670;DHT22;22662;47.412;9.742;2022-12-07T09:28:54;2.60;99.90
36670;DHT22;22662;47.412;9.742;2022-12-07T09:31:20;2.70;99.90
36670;DHT22;22662;47.412;9.742;2022-12-07T09:33:45;2.70;99.90
36670;DHT22;22662;47.412;9.742;2022-12-07T09:36:11;2.90;99.90
36670;DHT22;22662;47.412;9.742;2022-12-07T09:38:36;2.90;99.90
36670;DHT22;22662;47.412;9.742;2022-12-07T09:41:06;2.80;99.90
36670;DHT22;22662;47.412;9.742;2022-12-07T09:43:32;2.90;99.90
36670;DHT22;22662;47.412;9.742;2022-12-07T09:46:00;2.90;99.90
36670;DHT22;22662;47.412;9.742;2022-12-07T09:48:29;3.00;99.90
36670;DHT22;22662;47.412;9.742;2022-12-07T09:50:55;3.10;99.90
36670;DHT22;22662;47.412;9.742;2022-12-07T09:53:25;3.00;99.90
36670;DHT22;22662;47.412;9.742;2022-12-07T09:55:50;3.00;99.90
36670;DHT22;22662;47.412;9.742;2022-12-07T09:58:19;3.10;99.90
36670;DHT22;22662;47.412;9.742;2022-12-07T10:00:45;3.10;99.90
36670;DHT22;22662;47.412;9.742;2022-12-07T10:03:11;3.10;99.90
36670;DHT22;22662;47.412;9.742;2022-12-07T10:05:38;3.10;99.90
36670;DHT22;22662;47.412;9.742;2022-12-07T10:08:04;3.00;99.90
36670;DHT22;22662;47.412;9.742;2022-12-07T10:10:31;3.10;99.90
36670;DHT22;22662;47.412;9.742;2022-12-07T10:15:45;3.00;99.90
36670;DHT22;22662;47.412;9.742;2022-12-07T10:18:25;3.00;99.90
36670;DHT22;22662;47.412;9.742;2022-12-07T10:20:59;3.10;99.90
36670;DHT22;22662;47.412;9.742;2022-12-07T10:23:25;3.20;99.90
36670;DHT22;22662;47.412;9.742;2022-12-07T10:25:50;3.10;99.90
36670;DHT22;22662;47.412;9.742;2022-12-07T10:28:20;3.00;99.90
36670;DHT22;22662;47.412;9.742;2022-12-07T10:30:59;3.20;99.90
36670;DHT22;22662;47.412;9.742;2022-12-07T10:33:37;3.20;99.90
36670;DHT22;22662;47.412;9.742;2022-12-07T10:36:17;3.30;99.90
36670;DHT22;22662;47.412;9.742;2022-12-07T10:38:44;3.30;99.90
36670;DHT22;22662;47.412;9.742;2022-12-07T10:41:10;3.40;99.90
36670;DHT22;22662;47.412;9.742;2022-12-07T10:43:36;3.30;99.90
36670;DHT22;22662;47.412;9.742;2022-12-07T10:46:17;3.30;99.90
36670;DHT22;22662;47.412;9.742;2022-12-07T10:49:01;3.40;99.90
36670;DHT22;22662;47.412;9.742;2022-12-07T10:54:01;3.50;99.90
36670;DHT22;22662;47.412;9.742;2022-12-07T10:56:32;3.60;99.90
36670;DHT22;22662;47.412;9.742;2022-12-07T11:02:01;3.70;99.90
36670;DHT22;22662;47.412;9.742;2022-12-07T11:17:48;3.60;99.90
36670;DHT22;22662;47.412;9.742;2022-12-07T11:20:28;3.50;99.90
36670;DHT22;22662;47.412;9.742;2022-12-07T11:25:46;3.60;99.90
36670;DHT22;22662;47.412;9.742;2022-12-07T11:36:04;3.50;99.90
36670;DHT22;22662;47.412;9.742;2022-12-07T11:38:50;3.60;99.90
36670;DHT22;22662;47.412;9.742;2022-12-07T11:41:24;3.40;99.90
36670;DHT22;22662;47.412;9.742;2022-12-07T11:43:53;3.40;99.90
36670;DHT22;22662;47.412;9.742;2022-12-07T11:46:19;3.40;99.90
36670;DHT22;22662;47.412;9.742;2022-12-07T11:51:11;3.50;99.90
36670;DHT22;22662;47.412;9.742;2022-12-07T11:53:53;3.50;99.90
36670;DHT22;22662;47.412;9.742;2022-12-07T11:56:21;3.60;99.90
36670;DHT22;22662;47.412;9.742;2022-12-07T12:03:52;3.70;99.90
36670;DHT22;22662;47.412;9.742;2022-12-07T12:06:19;3.70;99.90
36670;DHT22;22662;47.412;9.742;2022-12-07T12:08:50;3.80;99.90
36670;DHT22;22662;47.412;9.742;2022-12-07T12:11:23;3.70;99.90
36670;DHT22;22662;47.412;9.742;2022-12-07T12:21:47;3.80;99.90
36670;DHT22;22662;47.412;9.742;2022-12-07T12:24:22;3.80;99.90
36670;DHT22;22662;47.412;9.742;2022-12-07T12:26:50;3.80;99.90
36670;DHT22;22662;47.412;9.742;2022-12-07T12:29:21;3.80;99.90
36670;DHT22;22662;47.412;9.742;2022-12-07T12:32:04;4.00;99.90
36670;DHT22;22662;47.412;9.742;2022-12-07T12:34:38;4.10;99.90
36670;DHT22;22662;47.412;9.742;2022-12-07T12:37:13;4.00;99.90
36670;DHT22;22662;47.412;9.742;2022-12-07T12:42:43;4.20;99.90
36670;DHT22;22662;47.412;9.742;2022-12-07T12:45:25;4.20;99.90
36670;DHT22;22662;47.412;9.742;2022-12-07T12:48:01;4.20;99.90
36670;DHT22;22662;47.412;9.742;2022-12-07T12:52:54;4.40;99.90
36670;DHT22;22662;47.412;9.742;2022-12-07T12:55:22;4.40;99.90
36670;DHT22;22662;47.412;9.742;2022-12-07T13:01:31;4.40;99.90
36670;DHT22;22662;47.412;9.742;2022-12-07T13:03:36;4.30;99.90
36670;DHT22;22662;47.412;9.742;2022-12-07T13:06:31;4.40;99.90
36670;DHT22;22662;47.412;9.742;2022-12-07T13:09:00;4.30;99.90
36670;DHT22;22662;47.412;9.742;2022-12-07T13:16:41;4.50;99.90
36670;DHT22;22662;47.412;9.742;2022-12-07T13:21:51;4.60;99.90
36670;DHT22;22662;47.412;9.742;2022-12-07T13:24:17;4.50;99.90
36670;DHT22;22662;47.412;9.742;2022-12-07T13:26:43;4.30;99.90
36670;DHT22;22662;47.412;9.742;2022-12-07T13:29:16;4.20;99.90
36670;DHT22;22662;47.412;9.742;2022-12-07T13:31:43;4.20;99.90
36670;DHT22;22662;47.412;9.742;2022-12-07T13:34:29;4.10;99.90
36670;DHT22;22662;47.412;9.742;2022-12-07T13:36:55;4.20;99.90
36670;DHT22;22662;47.412;9.742;2022-12-07T13:39:22;4.20;99.90
36670;DHT22;22662;47.412;9.742;2022-12-07T13:41:55;4.10;99.90
36670;DHT22;22662;47.412;9.742;2022-12-07T13:44:22;4.00;99.90
36670;DHT22;22662;47.412;9.742;2022-12-07T13:49:23;4.10;99.90
36670;DHT22;22662;47.412;9.742;2022-12-07T13:51:49;4.10;99.90
36670;DHT22;22662;47.412;9.742;2022-12-07T13:54:15;4.10;99.90
36670;DHT22;22662;47.412;9.742;2022-12-07T13:56:41;4.20;99.90
36670;DHT22;22662;47.412;9.742;2022-12-07T13:59:12;4.20;99.90
36670;DHT22;22662;47.412;9.742;2022-12-07T14:01:39;4.20;99.90
36670;DHT22;22662;47.412;9.742;2022-12-07T14:06:49;4.30;99.90
36670;DHT22;22662;47.412;9.742;2022-12-07T14:09:25;4.40;99.90
36670;DHT22;22662;47.412;9.742;2022-12-07T14:11:54;4.40;99.90
36670;DHT22;22662;47.412;9.742;2022-12-07T14:14:22;4.40;99.90
36670;DHT22;22662;47.412;9.742;2022-12-07T14:16:55;4.30;99.90
36670;DHT22;22662;47.412;9.742;2022-12-07T14:22:06;4.30;99.90
36670;DHT22;22662;47.412;9.742;2022-12-07T14:24:40;4.30;99.90
36670;DHT22;22662;47.412;9.742;2022-12-07T14:27:15;4.30;99.90
36670;DHT22;22662;47.412;9.742;2022-12-07T14:29:41;4.40;99.90
36670;DHT22;22662;47.412;9.742;2022-12-07T14:32:17;4.40;99.90
36670;DHT22;22662;47.412;9.742;2022-12-07T14:34:53;4.40;99.90
36670;DHT22;22662;47.412;9.742;2022-12-07T14:37:19;4.40;99.90
36670;DHT22;22662;47.412;9.742;2022-12-07T14:39:44;4.40;99.90
36670;DHT22;22662;47.412;9.742;2022-12-07T14:42:10;4.40;99.90
36670;DHT22;22662;47.412;9.742;2022-12-07T14:44:35;4.40;99.90
36670;DHT22;22662;47.412;9.742;2022-12-07T14:47:01;4.20;99.90
36670;DHT22;22662;47.412;9.742;2022-12-07T14:49:26;4.20;99.90
36670;DHT22;22662;47.412;9.742;2022-12-07T14:51:52;4.20;99.90
36670;DHT22;22662;47.412;9.742;2022-12-07T14:54:19;4.30;99.90
36670;DHT22;22662;47.412;9.742;2022-12-07T14:56:45;4.30;99.90
36670;DHT22;22662;47.412;9.742;2022-12-07T14:59:14;4.30;99.90
36670;DHT22;22662;47.412;9.742;2022-12-07T15:01:39;4.30;99.90
36670;DHT22;22662;47.412;9.742;2022-12-07T15:04:05;4.20;99.90
36670;DHT22;22662;47.412;9.742;2022-12-07T15:06:31;4.20;99.90
36670;DHT22;22662;47.412;9.742;2022-12-07T15:08:56;4.10;99.90
36670;DHT22;22662;47.412;9.742;2022-12-07T15:11:22;4.20;99.90
36670;DHT22;22662;47.412;9.742;2022-12-07T15:13:47;4.20;99.90
36670;DHT22;22662;47.412;9.742;2022-12-07T15:16:32;4.20;99.90
36670;DHT22;22662;47.412;9.742;2022-12-07T15:18:57;4.10;99.90
36670;DHT22;22662;47.412;9.742;2022-12-07T15:21:23;4.10;99.90
36670;DHT22;22662;47.412;9.742;2022-12-07T15:23:48;4.00;99.90
36670;DHT22;22662;47.412;9.742;2022-12-07T15:26:14;4.00;99.90
36670;DHT22;22662;47.412;9.742;2022-12-07T15:28:40;4.10;99.90
36670;DHT22;22662;47.412;9.742;2022-12-07T15:31:15;4.10;99.90
36670;DHT22;22662;47.412;9.742;2022-12-07T15:33:41;4.10;99.90
36670;DHT22;22662;47.412;9.742;2022-12-07T15:36:06;4.10;99.90
36670;DHT22;22662;47.412;9.742;2022-12-07T15:38:32;4.10;99.90
36670;DHT22;22662;47.412;9.742;2022-12-07T15:40:58;4.00;99.90
36670;DHT22;22662;47.412;9.742;2022-12-07T15:43:23;4.10;99.90
36670;DHT22;22662;47.412;9.742;2022-12-07T15:46:07;4.00;99.90
36670;DHT22;22662;47.412;9.742;2022-12-07T15:48:33;4.00;99.90
36670;DHT22;22662;47.412;9.742;2022-12-07T15:51:05;4.00;99.90
36670;DHT22;22662;47.412;9.742;2022-12-07T15:53:31;4.00;99.90
36670;DHT22;22662;47.412;9.742;2022-12-07T15:55:56;4.10;99.90
36670;DHT22;22662;47.412;9.742;2022-12-07T15:58:22;4.00;99.90
36670;DHT22;22662;47.412;9.742;2022-12-07T16:00:47;4.10;99.90
36670;DHT22;22662;47.412;9.742;2022-12-07T16:03:13;4.20;99.90
36670;DHT22;22662;47.412;9.742;2022-12-07T16:05:39;4.10;99.90
36670;DHT22;22662;47.412;9.742;2022-12-07T16:08:04;4.10;99.90
36670;DHT22;22662;47.412;9.742;2022-12-07T16:10:30;4.00;99.90
36670;DHT22;22662;47.412;9.742;2022-12-07T16:12:56;3.80;99.90
36670;DHT22;22662;47.412;9.742;2022-12-07T16:15:21;3.90;99.90
36670;DHT22;22662;47.412;9.742;2022-12-07T16:17:49;3.80;99.90
36670;DHT22;22662;47.412;9.742;2022-12-07T16:20:15;3.80;99.90
36670;DHT22;22662;47.412;9.742;2022-12-07T16:22:40;3.70;99.90
36670;DHT22;22662;47.412;9.742;2022-12-07T16:25:06;3.60;99.90
36670;DHT22;22662;47.412;9.742;2022-12-07T16:27:32;3.70;99.90
36670;DHT22;22662;47.412;9.742;2022-12-07T16:29:57;3.60;99.90
36670;DHT22;22662;47.412;9.742;2022-12-07T16:32:23;3.50;99.90
36670;DHT22;22662;47.412;9.742;2022-12-07T16:34:48;3.50;99.90
36670;DHT22;22662;47.412;9.742;2022-12-07T16:37:14;3.50;99.90
36670;DHT22;22662;47.412;9.742;2022-12-07T16:39:39;3.50;99.90
36670;DHT22;22662;47.412;9.742;2022-12-07T16:42:05;3.50;99.90
36670;DHT22;22662;47.412;9.742;2022-12-07T16:44:30;3.50;99.90
36670;DHT22;22662;47.412;9.742;2022-12-07T16:46:56;3.40;99.90
36670;DHT22;22662;47.412;9.742;2022-12-07T16:49:22;3.40;99.90
36670;DHT22;22662;47.412;9.742;2022-12-07T16:51:49;3.50;99.90
36670;DHT22;22662;47.412;9.742;2022-12-07T16:54:15;3.50;99.90
36670;DHT22;22662;47.412;9.742;2022-12-07T16:56:41;3.50;99.90
36670;DHT22;22662;47.412;9.742;2022-12-07T16:59:07;3.60;99.90
36670;DHT22;22662;47.412;9.742;2022-12-07T17:01:32;3.60;99.90
36670;DHT22;22662;47.412;9.742;2022-12-07T17:03:59;3.50;99.90
36670;DHT22;22662;47.412;9.742;2022-12-07T17:06:26;3.50;99.90
36670;DHT22;22662;47.412;9.742;2022-12-07T17:08:52;3.50;99.90
36670;DHT22;22662;47.412;9.742;2022-12-07T17:11:22;3.40;99.90
36670;DHT22;22662;47.412;9.742;2022-12-07T17:13:48;3.50;99.90
36670;DHT22;22662;47.412;9.742;2022-12-07T17:16:33;3.40;99.90
36670;DHT22;22662;47.412;9.742;2022-12-07T17:19:00;3.40;99.90
36670;DHT22;22662;47.412;9.742;2022-12-07T17:21:28;3.40;99.90
36670;DHT22;22662;47.412;9.742;2022-12-07T17:23:54;3.40;99.90
36670;DHT22;22662;47.412;9.742;2022-12-07T17:26:21;3.50;99.90